Preview of NWS' New Version of Forecast
This preview is not operational and should not be used for support decisions.

Terminal Aerodrome Forecast (TAF)

Issued by National Weather Service (NWS)

                            
000
FTUS42 KKEY 231743
TAFEYW
TAF
KEYW 231743Z 2318/2418 13018G26KT P6SM SCT025 SCT200
     FM240600 17014KT P6SM SCT020
     FM241300 21014KT P6SM VCSH SCT020 BKN060=